Partly Cloudy Current Weather (METAR) For Cancun Airport

All times on the weather descriptions are local

Observed at 16:43 - (40 mins ago)

Partly Cloudy

32°C

Partly Cloudy
Clouds: Scattered Clouds at 1,500ft
Wind: 080° at 09 knots
Visibility: 7 statute miles
QNH:
Dew Point: 25°C
Runway in Use: Runway 12

Sunrise Today: 06:26
Sunset Today: 19:14

Forecast Weather (TAF) For Cancun Airport

Issued at 19:00 - (10 days 1 hr ago)


Runway in Use: Unable to determine, wind is clam

Forecast valid until 19:00 on Saturday

METAR/TAF RAW METAR / TAF

MMUN 202143Z 08009KT 7SM SCT015 32/25 A3002 RMK 8/100 CI

Weather Widget

Put weather from any of our airports on your website with our weather widget.

Find Another Search

Airport Search


Please Wait Please Wait - Loading
Close
Close

Login

Username:

Password:

Remember Me:

Remember me on this computer

Forgotten your password? Get a reset password sent to your registered e-mail address

Close

User Private Message

Subject:

Message: